• Join FlightAware (Why Join?)
  • Login
  • US Flag 
05:50AM EDT


 

Airport Tracker/Info


-or-


 

Live Flight TrackerFlight Track Log ✈ AAY876 ✈ 05-Apr-2014 ✈ KPIE - KRFD

Flight Track Log - Related Links

Times and Time Zones

All times are in EDT time to prevent confusion due to time zone crossing. See the AAY876 flight status page for this flight to view local times or setup timezone preferences in your user account.

Time Position Orientation Groundspeed Altitude Reporting Facility
EDT Latitude Longitude Course Direction KTS MPH feet Rate Location/Type
05:50PM 28.0291 -82.7031 348° North  Level FlightAware Approximate
05:52PM 27.9333 -82.7000 350° North 182 209 1,000  Level Tampa TRACON
05:54PM 28.5161 -82.8124 348° North  Level FlightAware Approximate
05:54PM 28.0244 -82.6903 North 199 229 4,000  Level Jacksonville Center
05:55PM 28.0975 -82.7114 346° North 251 289 6,400 2,280 Climbing Jacksonville Center
05:57PM 28.7532 -82.8606 350° North  Level FlightAware Approximate
05:58PM 28.8569 -82.8814 350° North  Level FlightAware Approximate
06:01PM 28.6613 -82.8952 343° North 389 448 20,100  Level FlightAware ADS-B (KMCO)
06:02PM 28.7572 -82.9281 343° North 386 444 21,400 1,320 Climbing Jacksonville Center
06:03PM 28.8636 -82.9683 342° North 391 450 22,700 1,380 Climbing Jacksonville Center
06:04PM 28.9764 -83.0089 343° North 405 466 24,200 1,560 Climbing Jacksonville Center
06:05PM 29.0931 -83.0517 342° North 416 479 25,900 1,560 Climbing Jacksonville Center
06:06PM 29.2058 -83.0947 342° North 421 484 27,400 1,380 Climbing Jacksonville Center
06:07PM 29.3183 -83.1356 342° North 421 484 28,700 1,500 Climbing Jacksonville Center
06:08PM 29.4311 -83.1786 342° North 421 484 30,400 2,280 Climbing Jacksonville Center
06:09PM 29.5311 -83.2125 344° North 421 484 33,300 1,740 Climbing Jacksonville Center
06:10PM 29.6292 -83.2511 341° North 393 452 33,900 300 Climbing Jacksonville Center
06:11PM 29.7231 -83.2847 343° North 376 433 34,000  Climbing Jacksonville Center
06:12PM 29.8231 -83.3211 342° North 370 426 33,900 -60 Descending Jacksonville Center
06:13PM 29.9211 -83.3575 342° North 370 426 33,900  Level Jacksonville Center
06:18PM 30.4780 -83.5620 342° North 378 435 34,000  Climbing FlightAware ADS-B (KTLH)
06:19PM 30.5390 -83.5848 342° North 378 435 34,000  Level FlightAware ADS-B (KTLH)
06:19PM 30.5931 -83.6050 342° North 380 437 34,000  Level FlightAware ADS-B (KTLH)
06:20PM 30.6471 -83.6254 342° North 382 440 34,000  Level FlightAware ADS-B (KTLH)
06:21PM 30.7093 -83.6487 342° North 383 441 34,000  Level FlightAware ADS-B (KTLH)
06:22PM 30.8201 -83.6904 342° North 384 442 34,000  Level FlightAware ADS-B (KTLH)
06:22PM 30.8774 -83.7119 342° North 384 442 34,000  Level FlightAware ADS-B (KTLH)
06:23PM 30.9353 -83.7338 342° North 383 441 34,000  Level FlightAware ADS-B (KTLH)
06:23PM 31.0101 -83.7621 342° North 382 440 34,000  Level FlightAware ADS-B (KTLH)
06:24PM 31.0675 -83.7838 342° North 382 440 34,000  Level FlightAware ADS-B (KTLH)
06:25PM 31.1275 -83.8100 342° North 381 438 34,000  Level Jacksonville Center
06:27PM 31.3375 -83.8906 342° North 380 437 34,000  Level Atlanta Center
06:28PM 31.4419 -83.9294 342° North 380 437 34,000  Level Atlanta Center
06:29PM 31.5419 -83.9658 343° North 380 437 34,000  Level Atlanta Center
06:30PM 31.6506 -83.9925 348° North 385 443 34,000 120 Level Atlanta Center
06:31PM 31.7592 -84.0119 351° North 390 449 34,300 900 Climbing Atlanta Center
06:32PM 31.8656 -84.0364 349° North 390 449 35,800 1,200 Climbing Atlanta Center
06:33PM 31.9678 -84.0608 349° North 390 449 36,700 720 Climbing Atlanta Center
06:34PM 32.0700 -84.0831 350° North 379 436 37,300 600 Climbing Atlanta Center
06:35PM 32.1725 -84.1050 350° North 373 429 38,000 300 Climbing Atlanta Center
06:36PM 32.2767 -84.1272 350° North 373 429 38,000  Level Atlanta Center
06:37PM 32.3644 -84.1469 349° North 367 422 38,000  Level Atlanta Center
06:38PM 32.4644 -84.1692 349° North 362 417 38,000  Level Atlanta Center
06:39PM 32.5647 -84.1942 348° North 362 417 38,000  Level Atlanta Center
06:40PM 32.6628 -84.2139 350° North 362 417 38,000  Level Atlanta Center
06:41PM 32.7650 -84.2389 348° North 362 417 38,000  Level Atlanta Center
06:42PM 32.8714 -84.2639 349° North 356 410 38,000  Level Atlanta Center
06:43PM 32.9694 -84.2914 347° North 356 410 38,000  Level Atlanta Center
06:44PM 33.0675 -84.3114 350° North 356 410 38,000  Level Atlanta Center
06:45PM 33.1656 -84.3342 349° North 356 410 38,000  Level Atlanta Center
06:50PM 33.7865 -84.4731 348° North 360 414 38,000  Level FlightAware ADS-B (KDZJ)
06:51PM 33.8412 -84.4863 348° North 360 414 38,000  Level FlightAware ADS-B (KDZJ)
06:51PM 33.8909 -84.4984 349° North 360 414 38,000  Level FlightAware ADS-B (KDZJ)
06:52PM 33.9592 -84.5149 348° North 361 415 38,000  Level FlightAware ADS-B (KDZJ)
06:53PM 34.0255 -84.5310 348° North 361 415 38,000  Level FlightAware ADS-B (KDZJ)
06:53PM 34.0939 -84.5477 348° North 362 417 38,000  Level FlightAware ADS-B (KDZJ)
06:54PM 34.1604 -84.5639 348° North 362 417 38,000  Level FlightAware ADS-B (KDZJ)
06:55PM 34.2287 -84.5806 348° North 362 417 38,000  Level FlightAware ADS-B (KDZJ)
06:55PM 34.2946 -84.5967 348° North 362 417 38,000  Level FlightAware ADS-B (KDZJ)
06:56PM 34.3626 -84.6133 348° North 364 419 38,000  Level FlightAware ADS-B (KDZJ)
06:57PM 34.4318 -84.6303 348° North 366 421 38,000  Level FlightAware ADS-B (KDZJ)
06:57PM 34.4989 -84.6467 348° North 366 421 38,000  Level FlightAware ADS-B (KDZJ)
06:58PM 34.5673 -84.6635 348° North 366 421 38,000  Level FlightAware ADS-B (KDZJ)
06:59PM 34.6348 -84.6802 348° North 365 420 38,000  Level FlightAware ADS-B (KDZJ)
06:59PM 34.7034 -84.6971 348° North 364 419 38,000  Level FlightAware ADS-B (KDZJ)
07:00PM 34.7702 -84.7136 348° North 363 418 38,000  Level FlightAware ADS-B (KDZJ)
07:01PM 34.8382 -84.7305 348° North 364 419 38,000  Level FlightAware ADS-B (KDZJ)
07:01PM 34.9056 -84.7473 348° North 366 421 38,000  Level FlightAware ADS-B (KDZJ)
07:02PM 34.9741 -84.7643 349° North 375 432 38,000  Level FlightAware ADS-B (KDZJ)
07:03PM 35.0418 -84.7813 349° North 375 432 38,000  Level FlightAware ADS-B (KDZJ)
07:03PM 35.1083 -84.7979 349° North 375 432 38,000  Level FlightAware ADS-B (KDZJ)
07:04PM 35.1723 -84.8139 348° North 366 421 38,000  Level FlightAware ADS-B (KDZJ)
07:05PM 35.1899 -84.8183 348° North 374 430 38,000  Level FlightAware ADS-B (KMDQ)
07:05PM 35.2493 -84.8333 348° North 372 428 38,000  Level FlightAware ADS-B (KMDQ)
07:06PM 35.3227 -84.8518 348° North 370 426 38,000  Level FlightAware ADS-B (KMDQ)
07:07PM 35.3851 -84.8676 348° North 369 425 38,000  Level FlightAware ADS-B (KMDQ)
07:07PM 35.3978 -84.8708 348° North 369 425 38,000  Level FlightAware ADS-B (KMDQ)
07:08PM 35.5266 -84.9035 348° North 372 428 38,000  Level FlightAware ADS-B (KMDQ)
07:09PM 35.6011 -84.9224 348° North 376 433 38,000  Level FlightAware ADS-B (KMDQ)
07:10PM 35.6968 -84.9466 348° North 377 434 38,000  Level FlightAware ADS-B (KMDQ)
07:11PM 35.7990 -84.9725 349° North 376 433 38,000  Level FlightAware ADS-B (KMDQ)
07:11PM 35.8503 -84.9854 348° North 376 433 38,000  Level FlightAware ADS-B (KMDQ)
07:12PM 35.9068 -84.9999 348° North 375 432 38,000  Level FlightAware ADS-B (KMDQ)
07:13PM 36.0036 -85.0248 348° North 374 430 38,000  Level FlightAware ADS-B (KMDQ)
07:14PM 36.1333 -85.0580 348° North 374 430 38,000  Level FlightAware ADS-B (KMDQ)
07:15PM 36.1988 -85.0747 348° North 374 430 38,000  Level FlightAware ADS-B (KMDQ)
07:15PM 36.2650 -85.0917 348° North 373 429 38,000  Level FlightAware ADS-B (KMDQ)
07:16PM 36.3227 -85.1066 348° North 373 429 38,000  Level FlightAware ADS-B (KMDQ)
07:17PM 36.4084 -85.1288 348° North 373 429 38,000  Level FlightAware ADS-B (KMDQ)
07:18PM 36.5117 -85.1554 348° North 372 428 38,000  Level FlightAware ADS-B (KMDQ)
07:20PM 36.5187 -85.1572 348° North 371 427 38,000  Level FlightAware ADS-B (KMDQ)
07:22PM 36.8975 -85.2561 348° North 372 428 38,000  Level FlightAware ADS-B (KBRY)
07:24PM 37.1040 -85.3102 348° North 377 434 38,000  Level FlightAware ADS-B (KBRY)
07:24PM 37.1611 -85.3253 348° North 378 435 38,000  Level FlightAware ADS-B
07:25PM 37.2132 -85.3388 348° North 378 435 38,000  Level FlightAware ADS-B
07:25PM 37.2869 -85.3585 348° North 377 434 38,000  Level FlightAware ADS-B
07:26PM 37.3429 -85.3733 348° North 378 435 38,000  Level FlightAware ADS-B
07:26PM 37.3899 -85.3857 348° North 377 434 38,000  Level FlightAware ADS-B
07:27PM 37.4445 -85.4003 348° North 377 434 38,000  Level FlightAware ADS-B
07:27PM 37.4947 -85.4136 348° North 377 434 38,000  Level FlightAware ADS-B
07:28PM 37.5468 -85.4277 348° North 376 433 38,000  Level FlightAware ADS-B
07:29PM 37.6216 -85.4478 348° North 374 430 38,000  Level FlightAware ADS-B
07:29PM 37.6730 -85.4617 348° North 373 429 38,000  Level FlightAware ADS-B
07:30PM 37.7263 -85.4758 348° North 373 429 38,000 -120 Level FlightAware ADS-B
07:30PM 37.7977 -85.4948 348° North 375 432 37,900  Descending FlightAware ADS-B
07:31PM 37.8514 -85.5092 348° North 377 434 38,000 60 Climbing FlightAware ADS-B
07:31PM 37.9039 -85.5234 348° North 382 440 38,000  Level FlightAware ADS-B
07:32PM 37.9559 -85.5376 348° North 385 443 38,000  Level FlightAware ADS-B
07:32PM 38.0082 -85.5517 348° North 388 447 38,000  Level FlightAware ADS-B
07:33PM 38.0609 -85.5658 348° North 391 450 38,000  Level FlightAware ADS-B
07:34PM 38.1307 -85.5933 337° Northwest 371 427 38,000  Level FlightAware ADS-B
07:34PM 38.1830 -85.6240 335° Northwest 369 425 38,000  Level FlightAware ADS-B
07:35PM 38.2536 -85.6655 335° Northwest 371 427 38,000  Level FlightAware ADS-B
07:35PM 38.2933 -85.6888 335° Northwest 372 428 38,000  Level FlightAware ADS-B
07:37PM 38.4177 -85.7621 335° Northwest 374 430 38,000  Level FlightAware ADS-B (KBRY)
07:38PM 38.4378 -85.7740 335° Northwest 375 432 38,000  Level FlightAware ADS-B (KCVG)
07:39PM 38.5651 -85.8494 335° Northwest 375 432 38,000  Level FlightAware ADS-B (KCVG)
07:39PM 38.6500 -85.9000 335° Northwest 376 433 38,000  Level FlightAware ADS-B (KCVG)
07:40PM 38.7137 -85.9378 335° Northwest 377 434 38,000  Level FlightAware ADS-B (KBRY)
07:40PM 38.7775 -85.9759 335° Northwest 379 436 38,000  Level FlightAware ADS-B (KCVG)
07:42PM 38.7475 -85.9579 335° Northwest 380 437 38,000  Level FlightAware ADS-B (KBRY)
07:44PM 39.1065 -86.1731 335° Northwest 382 440 38,000  Level FlightAware ADS-B (KBRY)
07:45PM 39.1801 -86.2177 335° Northwest 381 438 38,000  Level FlightAware ADS-B (KBRY)
07:46PM 39.3129 -86.2986 335° Northwest 384 442 38,000  Level FlightAware ADS-B (KMDH)
07:47PM 39.3238 -86.3052 335° Northwest 385 443 38,000  Level FlightAware ADS-B (KMDH)
07:47PM 39.4456 -86.3793 335° Northwest 385 443 38,000  Level FlightAware ADS-B
07:48PM 39.3238 -86.3052 335° Northwest 383 441 38,000  Level FlightAware ADS-B (KMDH)
07:51PM 39.6283 -86.4909 335° Northwest 384 442 38,000  Level FlightAware ADS-B (KMDH)
07:52PM 39.7828 -86.5862 335° Northwest 387 445 38,000  Level FlightAware ADS-B
07:53PM 40.0146 -86.7295 334° Northwest 387 445 38,000  Level FlightAware ADS-B (KMDW)
07:54PM 40.1156 -86.7925 334° Northwest 386 444 38,000  Level FlightAware ADS-B (KMDW)
07:55PM 40.1660 -86.8240 334° Northwest 386 444 38,000  Level FlightAware ADS-B (KMDH)
07:56PM 40.2259 -86.8615 334° Northwest 386 444 38,000  Level FlightAware ADS-B (KMDW)
07:56PM 40.2390 -86.8705 320° Northwest 372 428 38,000  Level FlightAware ADS-B (KMDW)
07:57PM 40.3209 -86.9907 309° West 362 417 38,000  Level FlightAware ADS-B (KMDW)
07:57PM 40.3559 -87.0465 309° West 360 414 38,000  Level FlightAware ADS-B (KMDW)
07:58PM 40.3861 -87.0949 309° West 358 412 38,000  Level FlightAware ADS-B (KMDW)
07:59PM 40.4296 -87.1655 309° West 357 411 38,000  Level FlightAware ADS-B (KMDW)
07:59PM 40.4607 -87.2159 309° West 357 411 38,000  Level FlightAware ADS-B (KMDW)
08:00PM 40.4962 -87.2735 309° West 358 412 38,000  Level FlightAware ADS-B (KMDW)
08:00PM 40.5292 -87.3272 309° West 359 413 38,000  Level FlightAware ADS-B (KMDW)
08:01PM 40.5965 -87.4376 309° West 361 415 38,000  Level FlightAware ADS-B (KMDW)
08:02PM 40.6053 -87.4519 309° West 361 415 38,000  Level FlightAware ADS-B (KMDH)
08:03PM 40.6815 -87.5761 309° West 360 414 38,000  Level FlightAware ADS-B (KMDW)
08:03PM 40.6764 -87.5676 309° West 360 414 38,000  Level FlightAware ADS-B (KMDH)
08:03PM 40.7360 -87.6658 308° West 359 413 38,000  Level FlightAware ADS-B (KMDH)
08:04PM 40.7674 -87.7178 308° West 359 413 38,000  Level FlightAware ADS-B (KMDW)
08:04PM 40.7871 -87.7503 309° West 360 414 38,000  Level FlightAware ADS-B (KMDW)
08:05PM 40.8191 -87.8034 309° West 360 414 38,000 -1,200 Level FlightAware ADS-B (KMDW)
08:05PM 40.8206 -87.8059 308° West 364 419 37,100 -2,280 Descending FlightAware ADS-B (KPWK)
08:06PM 40.8717 -87.8906 309° West 363 418 36,100 -1,860 Descending FlightAware ADS-B (KMDW)
08:06PM 40.9039 -87.9444 308° West 362 417 35,100 -1,440 Descending FlightAware ADS-B (KMDW)
08:07PM 40.9477 -88.0177 308° West 385 443 34,300 -1,080 Descending FlightAware ADS-B (KMDW)
08:07PM 40.9847 -88.0793 309° West 391 450 33,800 -1,020 Descending FlightAware ADS-B (KMDW)
08:08PM 41.0229 -88.1425 308° West 393 452 33,200 -1,020 Descending FlightAware ADS-B (KMDW)
08:09PM 41.0414 -88.1735 308° West 392 451 32,700 -960 Descending FlightAware ADS-B (KMDH)
08:09PM 41.0952 -88.2639 308° West 385 443 32,200 -960 Descending FlightAware ADS-B (KMDH)
08:10PM 41.1286 -88.3202 308° West 383 441 31,700 -1,740 Descending FlightAware ADS-B (KPWK)
08:10PM 41.1700 -88.3902 308° West 377 434 30,200 -2,400 Descending FlightAware ADS-B (KMDW)
08:11PM 41.2021 -88.4445 308° West 368 423 29,000 -2,400 Descending FlightAware ADS-B (KMDW)
08:11PM 41.2347 -88.4994 308° West 361 415 27,800 -2,640 Descending FlightAware ADS-B (KMDW)
08:12PM 41.2863 -88.5873 308° West 361 415 25,500 -2,640 Descending FlightAware ADS-B (KMDW)
08:13PM 41.3185 -88.6422 308° West 352 405 24,200 -2,520 Descending FlightAware ADS-B (KPWK)
08:13PM 41.3527 -88.7003 308° West 348 400 22,700 -2,640 Descending FlightAware ADS-B (KMDW)
08:14PM 41.3857 -88.7566 308° West 348 400 21,300 -3,060 Descending FlightAware ADS-B (KPWK)
08:14PM 41.4210 -88.8169 308° West 364 419 19,300 -2,220 Descending FlightAware ADS-B (KMDW)
08:15PM 41.4630 -88.8886 308° West 332 382 18,500 -1,860 Descending FlightAware ADS-B (KMDW)
08:16PM 41.5012 -88.9545 308° West 339 390 16,800 -2,160 Descending FlightAware ADS-B (KMDW)
08:16PM 41.5439 -89.0281 308° West 327 376 15,500 -1,800 Descending FlightAware ADS-B (KPWK)
08:17PM 41.5845 -89.0982 308° West 319 367 14,100 -1,980 Descending FlightAware ADS-B (KMDW)
08:18PM 41.6125 -89.1465 308° West 319 367 13,000 -1,080 Descending FlightAware ADS-B (KMDW)
08:18PM 41.6151 -89.1511 308° West 315 362 12,800 -300 Descending FlightAware ADS-B (KPWK)
08:19PM 41.6985 -89.2822 308° West 315 362 12,600 -360 Descending FlightAware ADS-B (KMDW)
08:19PM 41.7025 -89.2845 346° North 316 364 12,500 -1,920 Descending FlightAware ADS-B (KMDW)
08:20PM 41.6871 -89.2727 North 314 361 11,700 -1,980 Descending FlightAware ADS-B (KPWK)
08:21PM 41.7025 -89.2845 24° Northeast 279 321 9,700 -1,920 Descending FlightAware ADS-B (KMDW)
08:22PM 41.9028 -89.1833 24° Northeast 276 318 7,200 -1,800 Descending Chicago Center
08:23PM 41.9725 -89.1433 23° Northeast 271 312 5,500 -1,800 Descending Chicago Center
08:24PM 42.0394 -89.1022 25° Northeast 270 311 3,600 -1,440 Descending Chicago Center
08:25PM 42.1219 -89.0553 23° Northeast 269 310 2,600 -660 Descending Chicago Center
08:26PM 42.1756 -89.0244 23° Northeast 264 304 2,300 -300 Descending Chicago Center